createdAt,value
2023-05-28T00:01:07.369Z,101628.94
2023-05-28T00:03:36.693Z,101632.47
2023-05-28T00:06:05.234Z,101635.16
2023-05-28T00:08:32.449Z,101621.72
2023-05-28T00:11:02.749Z,101625.25
2023-05-28T00:13:31.143Z,101627.94
2023-05-28T00:15:58.515Z,101619.88
2023-05-28T00:18:25.859Z,101629.69
2023-05-28T00:20:53.113Z,101615.38
2023-05-28T00:23:20.583Z,101618.06
2023-05-28T00:25:47.918Z,101615.25
2023-05-28T00:28:15.328Z,101612.56
2023-05-28T00:30:42.676Z,101616.09
2023-05-28T00:33:10.189Z,101613.41
2023-05-28T00:35:37.621Z,101606.34
2023-05-28T00:38:04.938Z,101605.34
2023-05-28T00:40:32.220Z,101600.97
2023-05-28T00:42:59.445Z,101599.13
2023-05-28T00:45:26.703Z,101605.34
2023-05-28T00:47:54.445Z,101604.50
2023-05-28T00:50:21.805Z,101601.81
2023-05-28T00:52:49.844Z,101603.41
2023-05-28T00:55:17.412Z,101605.25
2023-05-28T00:57:46.522Z,101598.13
2023-05-28T01:00:15.104Z,101591.66
2023-05-28T01:02:42.546Z,101598.13
2023-05-28T01:05:10.599Z,101603.41
2023-05-28T01:07:37.906Z,101599.88
2023-05-28T01:10:06.019Z,101599.63
2023-05-28T01:12:33.748Z,101592.75
2023-05-28T01:15:01.052Z,101589.13
2023-05-28T01:17:29.267Z,101591.06
2023-05-28T01:19:56.540Z,101586.28
2023-05-28T01:22:28.842Z,101588.13
2023-05-28T01:24:56.149Z,101585.97
2023-05-28T01:27:23.538Z,101585.22
2023-05-28T01:29:50.819Z,101584.34
2023-05-28T01:32:18.004Z,101581.53
2023-05-28T01:34:45.674Z,101592.53
2023-05-28T01:37:14.143Z,101596.94
2023-05-28T01:39:46.515Z,101595.09
2023-05-28T01:42:13.899Z,101593.28
2023-05-28T01:44:42.681Z,101597.66
2023-05-28T01:47:11.667Z,101595.44
2023-05-28T01:49:39.856Z,101592.75
2023-05-28T01:52:07.739Z,101584.44
2023-05-28T01:54:36.001Z,101578.13
2023-05-28T01:57:03.305Z,101585.91
2023-05-28T01:59:31.045Z,101580.53
2023-05-28T02:01:58.420Z,101583.00
2023-05-28T02:04:26.128Z,101578.69
2023-05-28T02:06:53.410Z,101582.47
2023-05-28T02:09:20.651Z,101580.28
2023-05-28T02:11:48.073Z,101577.59
2023-05-28T02:14:15.770Z,101580.19
2023-05-28T02:16:50.354Z,101581.75
2023-05-28T02:19:18.377Z,101573.22
2023-05-28T02:21:45.775Z,101585.16
2023-05-28T02:24:13.065Z,101583.34
2023-05-28T02:26:40.348Z,101583.34
2023-05-28T02:29:07.607Z,101575.16
2023-05-28T02:31:34.873Z,101577.09
2023-05-28T02:34:02.104Z,101574.53
2023-05-28T02:36:30.958Z,101573.69
2023-05-28T02:38:58.239Z,101580.16
2023-05-28T02:41:27.144Z,101585.66
2023-05-28T02:43:54.863Z,101580.00
2023-05-28T02:46:22.167Z,101573.06
2023-05-28T02:48:49.865Z,101580.16
2023-05-28T02:51:17.135Z,101583.91
2023-05-28T02:53:44.360Z,101578.31
2023-05-28T02:56:11.619Z,101578.31
2023-05-28T02:58:38.868Z,101582.97
2023-05-28T03:01:07.375Z,101587.34
2023-05-28T03:03:34.800Z,101582.28
2023-05-28T03:06:02.771Z,101582.28
2023-05-28T03:08:30.073Z,101582.09
2023-05-28T03:10:57.311Z,101576.84
2023-05-28T03:13:24.561Z,101572.41
2023-05-28T03:15:52.111Z,101584.03
2023-05-28T03:18:19.640Z,101575.19
2023-05-28T03:20:46.946Z,101572.50
2023-05-28T03:23:14.176Z,101581.44
2023-05-28T03:25:41.409Z,101571.66
2023-05-28T03:28:09.025Z,101568.78
2023-05-28T03:30:36.255Z,101575.00
2023-05-28T03:33:03.508Z,101576.06
2023-05-28T03:35:30.752Z,101571.47
2023-05-28T03:37:57.975Z,101566.94
2023-05-28T03:40:25.449Z,101561.47
2023-05-28T03:42:52.674Z,101565.31
2023-05-28T03:45:19.904Z,101560.78
2023-05-28T03:47:47.170Z,101567.03
2023-05-28T03:50:14.424Z,101561.75
2023-05-28T03:52:41.939Z,101558.97
2023-05-28T03:55:09.571Z,101561.75
2023-05-28T03:57:37.539Z,101565.31
2023-05-28T04:00:05.983Z,101574.16
2023-05-28T04:02:33.323Z,101568.13
2023-05-28T04:05:00.716Z,101567.03
2023-05-28T04:07:28.073Z,101567.03
2023-05-28T04:09:55.442Z,101569.63
2023-05-28T04:12:22.729Z,101573.16
2023-05-28T04:14:50.051Z,101573.06
2023-05-28T04:17:17.383Z,101574.91
2023-05-28T04:19:44.816Z,101575.84
2023-05-28T04:22:12.031Z,101576.84
2023-05-28T04:24:39.293Z,101571.47
2023-05-28T04:27:07.704Z,101574.22
2023-05-28T04:29:35.078Z,101573.25
2023-05-28T04:32:02.419Z,101576.06
2023-05-28T04:34:29.676Z,101571.53
2023-05-28T04:36:57.741Z,101574.16
2023-05-28T04:39:25.265Z,101572.41
2023-05-28T04:41:54.775Z,101572.50
2023-05-28T04:44:26.926Z,101566.28
2023-05-28T04:46:54.491Z,101568.84
2023-05-28T04:49:21.774Z,101571.53
2023-05-28T04:51:49.028Z,101576.06
2023-05-28T04:54:16.279Z,101576.06
2023-05-28T04:56:43.559Z,101568.84
2023-05-28T04:59:11.096Z,101567.88
2023-05-28T05:01:40.147Z,101575.84
2023-05-28T05:04:08.130Z,101576.91
2023-05-28T05:06:35.612Z,101573.06
2023-05-28T05:09:04.645Z,101577.69
2023-05-28T05:11:32.023Z,101575.75
2023-05-28T05:13:59.262Z,101575.75
2023-05-28T05:16:26.528Z,101573.69
2023-05-28T05:18:53.779Z,101568.16
2023-05-28T05:21:21.543Z,101564.41
2023-05-28T05:23:50.042Z,101555.50
2023-05-28T05:26:18.198Z,101551.09
2023-05-28T05:28:46.085Z,101559.69
2023-05-28T05:31:15.890Z,101557.47
2023-05-28T05:33:43.169Z,101565.75
2023-05-28T05:36:11.760Z,101568.09
2023-05-28T05:38:39.394Z,101565.78
2023-05-28T05:41:06.693Z,101560.16
2023-05-28T05:43:34.075Z,101560.53
2023-05-28T05:46:01.350Z,101564.59
2023-05-28T05:48:29.042Z,101559.56
2023-05-28T05:50:56.720Z,101563.50
2023-05-28T05:53:24.819Z,101558.84
2023-05-28T05:55:52.478Z,101565.94
2023-05-28T05:58:19.962Z,101562.16
2023-05-28T06:00:48.871Z,101564.59
2023-05-28T06:03:16.193Z,101565.34
2023-05-28T06:05:43.522Z,101571.44
2023-05-28T06:08:11.118Z,101564.97
2023-05-28T06:10:38.334Z,101568.41
2023-05-28T06:13:05.599Z,101564.72
2023-05-28T06:15:33.142Z,101568.19
2023-05-28T06:18:01.503Z,101573.19
2023-05-28T06:20:28.939Z,101573.09
2023-05-28T06:22:57.051Z,101558.78
2023-05-28T06:25:24.369Z,101566.59
2023-05-28T06:27:52.260Z,101558.41
2023-05-28T06:30:19.693Z,101562.69
2023-05-28T06:32:47.074Z,101555.47
2023-05-28T06:35:14.593Z,101554.25
2023-05-28T06:37:41.865Z,101553.25
2023-05-28T06:40:11.738Z,101555.72
2023-05-28T06:42:41.971Z,101555.81
2023-05-28T06:45:09.974Z,101558.16
2023-05-28T06:47:37.463Z,101560.34
2023-05-28T06:50:07.960Z,101560.09
2023-05-28T06:52:35.275Z,101567.09
2023-05-28T06:55:02.542Z,101559.38
2023-05-28T06:57:29.917Z,101554.25
2023-05-28T06:59:57.153Z,101551.81
2023-05-28T07:02:24.556Z,101561.19
2023-05-28T07:04:52.137Z,101563.16
2023-05-28T07:07:19.744Z,101561.03
2023-05-28T07:09:47.038Z,101556.53
2023-05-28T07:12:14.353Z,101548.09
2023-05-28T07:14:41.619Z,101550.53
2023-05-28T07:17:09.004Z,101553.09
2023-05-28T07:19:39.529Z,101550.28
2023-05-28T07:22:06.748Z,101555.53
2023-05-28T07:24:34.007Z,101561.81
2023-05-28T07:27:01.894Z,101551.03
2023-05-28T07:29:29.165Z,101558.13
2023-05-28T07:31:56.871Z,101553.59
2023-05-28T07:34:27.453Z,101558.13
2023-05-28T07:36:54.721Z,101555.28
2023-05-28T07:39:22.001Z,101557.28
2023-05-28T07:41:49.551Z,101556.44
2023-05-28T07:44:16.894Z,101563.50
2023-05-28T07:46:44.546Z,101560.81
2023-05-28T07:49:11.963Z,101557.28
2023-05-28T07:51:39.270Z,101551.91
2023-05-28T07:54:06.798Z,101550.28
2023-05-28T07:56:34.070Z,101549.50
2023-05-28T07:59:01.331Z,101545.19
2023-05-28T08:01:28.684Z,101548.22
2023-05-28T08:03:56.266Z,101545.53
2023-05-28T08:06:23.594Z,101552.63
2023-05-28T08:08:50.931Z,101548.31
2023-05-28T08:11:18.389Z,101547.47
2023-05-28T08:13:45.944Z,101530.03
2023-05-28T08:16:13.594Z,101538.75
2023-05-28T08:18:41.686Z,101537.16
2023-05-28T08:21:09.358Z,101535.84
2023-05-28T08:23:37.120Z,101533.88
2023-05-28T08:26:04.717Z,101537.31
2023-05-28T08:28:32.170Z,101540.84
2023-05-28T08:30:59.483Z,101537.91
2023-05-28T08:33:26.779Z,101528.00
2023-05-28T08:35:54.380Z,101535.13
2023-05-28T08:38:21.986Z,101539.63
2023-05-28T08:40:56.493Z,101535.38
2023-05-28T08:43:24.412Z,101536.09
2023-05-28T08:45:55.103Z,101530.31
2023-05-28T08:48:23.822Z,101529.38
2023-05-28T08:50:54.813Z,101519.00
2023-05-28T08:53:23.540Z,101519.69
2023-05-28T08:55:51.670Z,101522.16
2023-05-28T08:58:19.665Z,101520.44
2023-05-28T09:00:48.124Z,101520.31
2023-05-28T09:03:15.962Z,101515.69
2023-05-28T09:05:43.344Z,101519.31
2023-05-28T09:08:11.818Z,101514.31
2023-05-28T09:10:40.203Z,101510.28
2023-05-28T09:13:08.024Z,101505.75
2023-05-28T09:15:37.230Z,101503.81
2023-05-28T09:18:07.249Z,101513.56
2023-05-28T09:20:34.976Z,101503.06
2023-05-28T09:23:07.589Z,101504.38
2023-05-28T09:25:37.493Z,101508.81
2023-05-28T09:28:05.262Z,101501.13
2023-05-28T09:30:36.947Z,101484.97
2023-05-28T09:33:08.680Z,101494.00
2023-05-28T09:35:36.690Z,101486.44
2023-05-28T09:38:13.337Z,101488.53
2023-05-28T09:40:41.562Z,101487.19
2023-05-28T09:43:09.826Z,101490.59
2023-05-28T09:45:37.429Z,101485.22
2023-05-28T09:48:05.382Z,101480.56
2023-05-28T09:50:33.043Z,101474.09
2023-05-28T09:53:01.296Z,101484.00
2023-05-28T09:55:29.559Z,101468.84
2023-05-28T09:58:04.037Z,101467.84
2023-05-28T10:00:43.234Z,101456.50
2023-05-28T10:03:30.148Z,101463.09
2023-05-28T10:06:05.174Z,101458.31
2023-05-28T10:08:38.515Z,101462.97
2023-05-28T10:11:14.110Z,101461.97
2023-05-28T10:13:41.980Z,101461.22
2023-05-28T10:16:10.127Z,101465.66
2023-05-28T10:18:39.511Z,101456.84
2023-05-28T10:21:09.252Z,101446.22
2023-05-28T10:23:37.056Z,101453.78
2023-05-28T10:26:05.281Z,101452.91
2023-05-28T10:28:32.908Z,101457.94
2023-05-28T10:31:05.426Z,101454.53
2023-05-28T10:33:34.068Z,101463.44
2023-05-28T10:36:02.070Z,101455.13
2023-05-28T10:38:30.979Z,101460.38
2023-05-28T10:41:04.644Z,101458.91
2023-05-28T10:43:46.441Z,101461.22
2023-05-28T10:46:16.545Z,101449.38
2023-05-28T10:49:06.148Z,101449.00
2023-05-28T10:52:00.921Z,101459.16
2023-05-28T10:54:31.233Z,101458.31
2023-05-28T10:57:15.437Z,101459.28
2023-05-28T11:00:02.101Z,101461.00
2023-05-28T11:02:34.313Z,101453.91
2023-05-28T11:05:05.341Z,101456.97
2023-05-28T11:07:42.478Z,101445.75
2023-05-28T11:10:13.787Z,101443.41
2023-05-28T11:12:42.831Z,101448.16
2023-05-28T11:15:12.061Z,101456.22
2023-05-28T11:17:40.512Z,101442.06
2023-05-28T11:20:19.753Z,101449.38
2023-05-28T11:22:47.500Z,101439.97
2023-05-28T11:25:15.169Z,101441.94
2023-05-28T11:27:42.677Z,101448.53
2023-05-28T11:30:10.541Z,101437.16
2023-05-28T11:32:37.893Z,101450.25
2023-05-28T11:35:07.568Z,101433.88
2023-05-28T11:37:36.439Z,101438.41
2023-05-28T11:40:06.675Z,101428.00
2023-05-28T11:42:34.463Z,101429.94
2023-05-28T11:45:01.930Z,101427.16
2023-05-28T11:47:32.160Z,101429.72
2023-05-28T11:49:59.606Z,101421.13
2023-05-28T11:52:27.746Z,101416.28
2023-05-28T11:54:57.988Z,101416.28
2023-05-28T11:57:34.694Z,101414.31
2023-05-28T12:00:13.434Z,101411.72
2023-05-28T12:02:45.386Z,101411.38
2023-05-28T12:05:13.319Z,101403.91
2023-05-28T12:07:46.635Z,101400.47
2023-05-28T12:10:16.061Z,101399.38
2023-05-28T12:12:45.536Z,101390.56
2023-05-28T12:15:13.471Z,101384.22
2023-05-28T12:17:43.159Z,101392.75
2023-05-28T12:20:16.224Z,101387.13
2023-05-28T12:22:44.191Z,101380.75
2023-05-28T12:25:12.237Z,101390.56
2023-05-28T12:27:39.912Z,101381.50
2023-05-28T12:30:08.072Z,101370.72
2023-05-28T12:32:38.361Z,101376.50
2023-05-28T12:35:05.997Z,101365.59
2023-05-28T12:37:33.938Z,101373.22
2023-05-28T12:40:01.352Z,101375.75
2023-05-28T12:42:28.635Z,101382.00
2023-05-28T12:44:56.196Z,101366.59
2023-05-28T12:47:23.492Z,101368.19
2023-05-28T12:49:51.039Z,101374.78
2023-05-28T12:52:18.316Z,101369.50
2023-05-28T12:54:45.706Z,101371.94
2023-05-28T12:57:12.960Z,101364.38
2023-05-28T12:59:40.524Z,101364.50
2023-05-28T13:02:07.973Z,101356.91
2023-05-28T13:04:36.649Z,101365.34
2023-05-28T13:07:04.752Z,101363.41
2023-05-28T13:09:32.016Z,101358.63
2023-05-28T13:11:59.228Z,101359.47
2023-05-28T13:14:27.089Z,101350.28
2023-05-28T13:16:56.641Z,101351.25
2023-05-28T13:19:23.917Z,101345.50
2023-05-28T13:21:51.596Z,101346.25
2023-05-28T13:24:19.069Z,101342.81
2023-05-28T13:26:46.308Z,101340.13
2023-05-28T13:29:13.574Z,101340.88
2023-05-28T13:31:41.344Z,101334.75
2023-05-28T13:34:08.684Z,101330.22
2023-05-28T13:36:37.099Z,101334.75
2023-05-28T13:39:05.292Z,101332.06
2023-05-28T13:41:32.856Z,101332.16
2023-05-28T13:44:02.074Z,101333.75
2023-05-28T13:46:29.484Z,101320.44
2023-05-28T13:48:57.255Z,101323.97
2023-05-28T13:51:24.631Z,101320.44
2023-05-28T13:53:52.462Z,101317.75
2023-05-28T13:56:19.759Z,101313.94
2023-05-28T13:58:47.019Z,101315.91
2023-05-28T14:01:14.561Z,101314.91
2023-05-28T14:03:46.513Z,101314.06
2023-05-28T14:06:14.698Z,101312.09
2023-05-28T14:08:41.970Z,101308.56
2023-05-28T14:11:09.554Z,101312.22
2023-05-28T14:13:36.848Z,101302.44
2023-05-28T14:16:04.152Z,101308.31
2023-05-28T14:18:31.428Z,101304.75
2023-05-28T14:20:59.047Z,101305.63
2023-05-28T14:23:26.472Z,101298.50
2023-05-28T14:25:54.308Z,101299.34
2023-05-28T14:28:21.833Z,101306.59
2023-05-28T14:30:49.101Z,101291.28
2023-05-28T14:33:16.468Z,101292.16
2023-05-28T14:35:43.775Z,101289.34
2023-05-28T14:38:11.053Z,101293.63
2023-05-28T14:40:38.312Z,101280.41
2023-05-28T14:43:05.587Z,101285.69
2023-05-28T14:45:33.047Z,101282.03
2023-05-28T14:48:02.135Z,101291.06
2023-05-28T14:50:29.555Z,101282.09
2023-05-28T14:52:56.845Z,101276.72
2023-05-28T14:55:24.142Z,101275.75
2023-05-28T14:57:51.466Z,101277.50
2023-05-28T15:00:18.820Z,101279.19
2023-05-28T15:02:46.225Z,101274.66
2023-05-28T15:05:13.589Z,101271.97
2023-05-28T15:07:41.112Z,101276.50
2023-05-28T15:10:08.771Z,101274.66
2023-05-28T15:12:36.287Z,101283.56
2023-05-28T15:15:04.733Z,101279.19
2023-05-28T15:17:32.056Z,101275.50
2023-05-28T15:19:59.376Z,101277.34
2023-05-28T15:22:26.799Z,101275.25
2023-05-28T15:24:54.156Z,101275.50
2023-05-28T15:27:21.455Z,101266.22
2023-05-28T15:29:49.085Z,101268.06
2023-05-28T15:32:17.717Z,101265.06
2023-05-28T15:34:45.109Z,101268.91
2023-05-28T15:37:13.691Z,101261.66
2023-05-28T15:39:41.084Z,101262.53
2023-05-28T15:42:09.027Z,101261.53
2023-05-28T15:44:36.621Z,101256.28
2023-05-28T15:47:03.958Z,101260.69
2023-05-28T15:49:31.461Z,101256.03
2023-05-28T15:52:01.648Z,101255.88
2023-05-28T15:54:29.192Z,101259.69
2023-05-28T15:56:56.635Z,101258.72
2023-05-28T15:59:24.043Z,101256.72
2023-05-28T16:01:52.428Z,101252.34
2023-05-28T16:04:22.089Z,101247.81
2023-05-28T16:06:49.456Z,101246.97
2023-05-28T16:09:16.776Z,101245.97
2023-05-28T16:11:46.075Z,101246.84
2023-05-28T16:14:16.973Z,101245.84
2023-05-28T16:16:48.698Z,101244.16
2023-05-28T16:19:16.272Z,101238.78
2023-05-28T16:21:46.800Z,101238.78
2023-05-28T16:24:15.762Z,101237.78
2023-05-28T16:26:43.002Z,101239.72
2023-05-28T16:29:10.357Z,101237.03
2023-05-28T16:31:38.091Z,101241.47
2023-05-28T16:34:05.636Z,101246.84
2023-05-28T16:36:34.664Z,101247.53
2023-05-28T16:39:03.311Z,101247.53
2023-05-28T16:41:31.192Z,101248.41
2023-05-28T16:43:58.688Z,101250.97
2023-05-28T16:46:27.580Z,101240.31
2023-05-28T16:48:55.524Z,101242.31
2023-05-28T16:51:23.945Z,101252.09
2023-05-28T16:53:51.888Z,101252.81
2023-05-28T16:56:19.494Z,101250.97
2023-05-28T16:58:48.245Z,101242.16
2023-05-28T17:01:19.599Z,101249.88
2023-05-28T17:03:47.252Z,101250.97
2023-05-28T17:06:17.447Z,101245.59
2023-05-28T17:08:46.146Z,101238.38
2023-05-28T17:11:13.504Z,101242.75
2023-05-28T17:13:40.713Z,101239.34
2023-05-28T17:16:07.948Z,101234.81
2023-05-28T17:18:35.193Z,101240.19
2023-05-28T17:21:02.853Z,101237.50
2023-05-28T17:23:30.290Z,101241.91
2023-05-28T17:25:57.585Z,101240.78
2023-05-28T17:28:25.002Z,101245.59
2023-05-28T17:30:52.239Z,101242.75
2023-05-28T17:33:19.457Z,101244.47
2023-05-28T17:35:46.767Z,101246.31
2023-05-28T17:38:14.058Z,101255.09
2023-05-28T17:40:41.412Z,101255.25
2023-05-28T17:43:08.688Z,101250.97
2023-05-28T17:45:36.044Z,101257.19
2023-05-28T17:48:04.355Z,101259.78
2023-05-28T17:50:31.635Z,101254.50
2023-05-28T17:52:58.878Z,101254.41
2023-05-28T17:55:26.555Z,101249.88
2023-05-28T17:57:53.985Z,101251.72
2023-05-28T18:00:22.189Z,101249.00
2023-05-28T18:02:54.775Z,101242.75
2023-05-28T18:05:23.160Z,101250.72
2023-05-28T18:07:50.449Z,101250.72
2023-05-28T18:10:17.718Z,101249.88
2023-05-28T18:12:44.980Z,101250.81
2023-05-28T18:15:12.401Z,101256.09
2023-05-28T18:17:40.011Z,101253.53
2023-05-28T18:20:08.125Z,101249.13
2023-05-28T18:22:35.490Z,101254.25
2023-05-28T18:25:03.537Z,101257.09
2023-05-28T18:27:30.815Z,101259.78
2023-05-28T18:29:58.099Z,101264.28
2023-05-28T18:32:25.420Z,101259.78
2023-05-28T18:34:52.656Z,101260.63
2023-05-28T18:37:19.914Z,101257.09
2023-05-28T18:39:47.876Z,101249.00
2023-05-28T18:42:15.110Z,101254.41
2023-05-28T18:44:43.706Z,101252.56
2023-05-28T18:47:11.254Z,101253.41
2023-05-28T18:49:38.687Z,101253.41
2023-05-28T18:52:08.797Z,101259.63
2023-05-28T18:54:36.140Z,101262.47
2023-05-28T18:57:03.494Z,101262.31
2023-05-28T18:59:30.937Z,101267.84
2023-05-28T19:02:01.234Z,101270.41
2023-05-28T19:04:28.687Z,101272.25
2023-05-28T19:06:56.954Z,101281.31
2023-05-28T19:09:24.475Z,101281.19
2023-05-28T19:11:51.722Z,101275.94
2023-05-28T19:14:19.011Z,101267.84
2023-05-28T19:16:46.430Z,101278.63
2023-05-28T19:19:14.028Z,101275.94
2023-05-28T19:21:41.314Z,101278.34
2023-05-28T19:24:08.867Z,101281.31
2023-05-28T19:26:36.761Z,101285.72
2023-05-28T19:29:04.146Z,101291.09
2023-05-28T19:31:31.405Z,101295.50
2023-05-28T19:33:58.655Z,101291.94
2023-05-28T19:36:26.054Z,101299.19
2023-05-28T19:38:53.273Z,101294.63
2023-05-28T19:41:20.649Z,101300.88
2023-05-28T19:43:48.073Z,101298.19
2023-05-28T19:46:18.203Z,101304.56
2023-05-28T19:48:45.764Z,101306.25
2023-05-28T19:51:13.573Z,101308.25
2023-05-28T19:53:40.812Z,101312.50
2023-05-28T19:56:08.069Z,101308.84
2023-05-28T19:58:35.359Z,101317.03
2023-05-28T20:01:02.693Z,101310.19
2023-05-28T20:03:38.524Z,101315.59
2023-05-28T20:06:06.554Z,101319.28
2023-05-28T20:08:33.874Z,101320.13
2023-05-28T20:11:01.110Z,101316.69
2023-05-28T20:13:28.563Z,101320.13
2023-05-28T20:15:56.008Z,101312.72
2023-05-28T20:18:23.267Z,101315.25
2023-05-28T20:20:50.635Z,101313.41
2023-05-28T20:23:17.921Z,101311.47
2023-05-28T20:25:45.700Z,101318.53
2023-05-28T20:28:13.124Z,101324.91
2023-05-28T20:30:40.394Z,101326.50
2023-05-28T20:33:10.090Z,101330.19
2023-05-28T20:35:37.511Z,101331.75
2023-05-28T20:38:05.743Z,101336.44
2023-05-28T20:40:36.253Z,101339.22
2023-05-28T20:43:04.577Z,101347.19
2023-05-28T20:45:36.907Z,101346.47
2023-05-28T20:48:04.852Z,101350.84
2023-05-28T20:50:32.535Z,101354.53
2023-05-28T20:53:00.882Z,101360.78
2023-05-28T20:55:28.154Z,101363.09
2023-05-28T20:57:55.605Z,101369.44
2023-05-28T21:00:23.612Z,101377.78
2023-05-28T21:02:56.782Z,101382.06
2023-05-28T21:05:24.849Z,101388.19
2023-05-28T21:07:52.826Z,101387.34
2023-05-28T21:10:20.136Z,101389.19
2023-05-28T21:12:47.345Z,101394.31
2023-05-28T21:15:16.161Z,101392.59
2023-05-28T21:17:43.460Z,101391.00
2023-05-28T21:20:11.314Z,101399.69
2023-05-28T21:22:38.587Z,101405.19
2023-05-28T21:25:06.235Z,101407.03
2023-05-28T21:27:33.443Z,101411.25
2023-05-28T21:30:01.296Z,101415.31
2023-05-28T21:32:28.554Z,101406.69
2023-05-28T21:34:55.938Z,101417.31
2023-05-28T21:37:23.149Z,101415.72
2023-05-28T21:39:51.383Z,101413.44
2023-05-28T21:42:18.616Z,101420.25
2023-05-28T21:44:45.886Z,101418.56
2023-05-28T21:47:13.118Z,101424.34
2023-05-28T21:49:40.382Z,101419.91
2023-05-28T21:52:08.363Z,101422.00
2023-05-28T21:54:35.909Z,101424.81
2023-05-28T21:57:03.219Z,101425.06
2023-05-28T21:59:31.033Z,101428.72
2023-05-28T22:01:58.413Z,101414.78
2023-05-28T22:04:25.773Z,101409.16
2023-05-28T22:06:53.180Z,101417.94
2023-05-28T22:09:20.930Z,101425.84
2023-05-28T22:11:48.386Z,101426.84
2023-05-28T22:14:21.536Z,101422.56
2023-05-28T22:16:49.856Z,101423.06
2023-05-28T22:19:18.347Z,101428.47
2023-05-28T22:21:46.066Z,101420.16
2023-05-28T22:24:13.381Z,101419.94
2023-05-28T22:26:40.698Z,101423.47
2023-05-28T22:29:08.263Z,101424.84
2023-05-28T22:31:35.668Z,101431.16
2023-05-28T22:34:03.525Z,101431.31
2023-05-28T22:36:31.585Z,101423.59
2023-05-28T22:38:59.036Z,101422.03
2023-05-28T22:41:26.839Z,101420.53
2023-05-28T22:43:54.213Z,101432.53
2023-05-28T22:46:21.570Z,101428.00
2023-05-28T22:48:50.080Z,101416.88
2023-05-28T22:51:17.706Z,101420.06
2023-05-28T22:53:45.480Z,101418.69
2023-05-28T22:56:13.760Z,101421.13
2023-05-28T22:58:42.198Z,101418.19
2023-05-28T23:01:10.580Z,101415.50
2023-05-28T23:03:38.751Z,101420.63
2023-05-28T23:06:06.373Z,101416.97
2023-05-28T23:08:33.760Z,101422.22
2023-05-28T23:11:01.027Z,101415.00
2023-05-28T23:13:28.225Z,101423.81
2023-05-28T23:15:55.671Z,101425.50
2023-05-28T23:18:23.059Z,101431.03
2023-05-28T23:20:50.429Z,101430.78
2023-05-28T23:23:17.998Z,101427.25
2023-05-28T23:25:45.491Z,101430.63
2023-05-28T23:28:12.720Z,101438.84
2023-05-28T23:30:39.952Z,101434.19
2023-05-28T23:33:07.214Z,101435.06
2023-05-28T23:35:34.449Z,101430.41
2023-05-28T23:38:01.693Z,101433.09
2023-05-28T23:40:28.946Z,101432.38
2023-05-28T23:42:57.572Z,101432.38
2023-05-28T23:45:24.831Z,101433.22
2023-05-28T23:47:52.082Z,101434.94
2023-05-28T23:50:19.361Z,101449.13
2023-05-28T23:52:46.630Z,101437.50
2023-05-28T23:55:13.861Z,101446.44
2023-05-28T23:57:41.512Z,101441.16
